sensor_id;sensor_type;location;lat;lon;timestamp;pressure;altitude;pressure_sealevel;temperature;humidity
63582;BME280;49727;51.078;17.066;2022-10-23T00:03:21;100369.94;;;10.65;83.13
63582;BME280;49727;51.078;17.066;2022-10-23T00:18:21;100365.09;;;10.60;83.00
63582;BME280;49727;51.078;17.066;2022-10-23T00:33:21;100372.59;;;10.40;81.93
63582;BME280;49727;51.078;17.066;2022-10-23T00:48:22;100366.81;;;9.94;82.13
63582;BME280;49727;51.078;17.066;2022-10-23T01:03:25;100364.66;;;9.55;82.15
63582;BME280;49727;51.078;17.066;2022-10-23T01:33:41;100388.66;;;9.10;83.11
63582;BME280;49727;51.078;17.066;2022-10-23T01:48:50;100392.47;;;8.90;83.22
63582;BME280;49727;51.078;17.066;2022-10-23T02:03:52;100400.13;;;8.67;83.60
63582;BME280;49727;51.078;17.066;2022-10-23T02:34:02;100398.25;;;8.31;84.01
63582;BME280;49727;51.078;17.066;2022-10-23T02:49:11;100404.16;;;8.43;84.23
63582;BME280;49727;51.078;17.066;2022-10-23T03:04:13;100403.28;;;8.70;84.56
63582;BME280;49727;51.078;17.066;2022-10-23T03:19:15;100405.13;;;8.70;84.90
63582;BME280;49727;51.078;17.066;2022-10-23T03:34:15;100415.34;;;8.83;84.42
63582;BME280;49727;51.078;17.066;2022-10-23T03:49:15;100428.22;;;9.13;84.74
63582;BME280;49727;51.078;17.066;2022-10-23T04:04:16;100410.06;;;9.09;84.34
63582;BME280;49727;51.078;17.066;2022-10-23T04:19:16;100394.94;;;8.83;84.11
63582;BME280;49727;51.078;17.066;2022-10-23T04:34:17;100398.13;;;8.69;83.84
63582;BME280;49727;51.078;17.066;2022-10-23T04:49:18;100409.59;;;8.51;83.94
63582;BME280;49727;51.078;17.066;2022-10-23T05:04:18;100417.50;;;8.33;84.33
63582;BME280;49727;51.078;17.066;2022-10-23T05:19:26;100431.84;;;8.40;84.47
63582;BME280;49727;51.078;17.066;2022-10-23T05:34:29;100439.94;;;8.49;84.89
63582;BME280;49727;51.078;17.066;2022-10-23T05:49:31;100440.41;;;8.62;85.00
63582;BME280;49727;51.078;17.066;2022-10-23T06:04:33;100431.34;;;8.91;85.20
63582;BME280;49727;51.078;17.066;2022-10-23T06:19:33;100441.19;;;9.17;84.72
63582;BME280;49727;51.078;17.066;2022-10-23T06:34:34;100463.09;;;9.37;84.44
63582;BME280;49727;51.078;17.066;2022-10-23T06:49:34;100474.19;;;9.85;84.10
63582;BME280;49727;51.078;17.066;2022-10-23T07:04:34;100472.28;;;10.38;84.31
63582;BME280;49727;51.078;17.066;2022-10-23T07:19:35;100472.50;;;11.51;83.59
63582;BME280;49727;51.078;17.066;2022-10-23T07:34:35;100475.66;;;13.06;82.86
63582;BME280;49727;51.078;17.066;2022-10-23T07:49:36;100474.41;;;14.51;80.27
63582;BME280;49727;51.078;17.066;2022-10-23T08:04:36;100471.72;;;14.87;77.56
63582;BME280;49727;51.078;17.066;2022-10-23T08:19:37;100506.03;;;15.99;75.83
63582;BME280;49727;51.078;17.066;2022-10-23T08:34:37;100489.97;;;22.45;68.53
63582;BME280;49727;51.078;17.066;2022-10-23T09:04:44;100510.97;;;33.21;42.97
63582;BME280;49727;51.078;17.066;2022-10-23T09:19:45;100502.50;;;36.33;31.87
63582;BME280;49727;51.078;17.066;2022-10-23T09:34:51;100499.38;;;38.18;25.69
63582;BME280;49727;51.078;17.066;2022-10-23T09:49:54;100489.59;;;33.27;26.62
63582;BME280;49727;51.078;17.066;2022-10-23T10:04:56;100479.66;;;38.11;22.95
63582;BME280;49727;51.078;17.066;2022-10-23T10:35:25;100457.97;;;23.44;38.42
63582;BME280;49727;51.078;17.066;2022-10-23T10:50:36;100443.94;;;25.71;37.84
63582;BME280;49727;51.078;17.066;2022-10-23T11:05:45;100418.69;;;32.60;30.31
63582;BME280;49727;51.078;17.066;2022-10-23T11:21:21;100404.53;;;31.65;29.22
63582;BME280;49727;51.078;17.066;2022-10-23T11:52:20;100377.56;;;36.08;23.20
63582;BME280;49727;51.078;17.066;2022-10-23T12:22:30;100333.41;;;35.31;22.61
63582;BME280;49727;51.078;17.066;2022-10-23T12:52:36;100294.53;;;36.46;22.52
63582;BME280;49727;51.078;17.066;2022-10-23T13:07:44;100280.16;;;37.80;20.04
63582;BME280;49727;51.078;17.066;2022-10-23T13:22:55;100268.81;;;40.66;18.91
63582;BME280;49727;51.078;17.066;2022-10-23T13:38:06;100260.78;;;38.88;20.10
63582;BME280;49727;51.078;17.066;2022-10-23T13:53:11;100255.31;;;30.38;26.74
63582;BME280;49727;51.078;17.066;2022-10-23T14:08:11;100241.31;;;25.12;33.94
63582;BME280;49727;51.078;17.066;2022-10-23T14:23:12;100246.91;;;22.93;38.42
63582;BME280;49727;51.078;17.066;2022-10-23T14:38:12;100243.03;;;23.06;39.36
63582;BME280;49727;51.078;17.066;2022-10-23T14:53:13;100222.16;;;21.01;42.86
63582;BME280;49727;51.078;17.066;2022-10-23T15:08:15;100220.47;;;19.14;46.86
63582;BME280;49727;51.078;17.066;2022-10-23T15:23:16;100201.06;;;17.92;50.05
63582;BME280;49727;51.078;17.066;2022-10-23T15:38:16;100204.59;;;17.09;52.82
63582;BME280;49727;51.078;17.066;2022-10-23T15:53:17;100209.06;;;16.30;55.35
63582;BME280;49727;51.078;17.066;2022-10-23T16:08:17;100219.50;;;15.64;58.20
63582;BME280;49727;51.078;17.066;2022-10-23T16:23:18;100237.91;;;15.12;60.20
63582;BME280;49727;51.078;17.066;2022-10-23T16:38:18;100227.94;;;14.64;62.22
63582;BME280;49727;51.078;17.066;2022-10-23T16:53:19;100217.06;;;14.22;63.73
63582;BME280;49727;51.078;17.066;2022-10-23T17:08:20;100208.50;;;13.84;65.07
63582;BME280;49727;51.078;17.066;2022-10-23T17:23:20;100197.00;;;13.47;66.03
63582;BME280;49727;51.078;17.066;2022-10-23T17:38:21;100203.28;;;13.24;67.66
63582;BME280;49727;51.078;17.066;2022-10-23T17:53:21;100178.41;;;13.09;68.59
63582;BME280;49727;51.078;17.066;2022-10-23T18:08:21;100163.50;;;12.84;69.30
63582;BME280;49727;51.078;17.066;2022-10-23T18:23:22;100152.72;;;12.63;70.43
63582;BME280;49727;51.078;17.066;2022-10-23T18:38:22;100152.72;;;12.63;70.71
63582;BME280;49727;51.078;17.066;2022-10-23T18:53:22;100137.72;;;12.47;71.79
63582;BME280;49727;51.078;17.066;2022-10-23T19:08:23;100139.72;;;12.30;71.98
63582;BME280;49727;51.078;17.066;2022-10-23T19:23:23;100092.75;;;12.21;72.22
63582;BME280;49727;51.078;17.066;2022-10-23T19:38:24;100109.78;;;12.19;73.15
63582;BME280;49727;51.078;17.066;2022-10-23T19:53:24;100088.50;;;12.11;72.88
63582;BME280;49727;51.078;17.066;2022-10-23T20:08:25;100081.59;;;12.02;73.33
63582;BME280;49727;51.078;17.066;2022-10-23T20:23:25;100080.97;;;11.92;73.88
63582;BME280;49727;51.078;17.066;2022-10-23T20:38:25;100055.50;;;11.89;74.06
63582;BME280;49727;51.078;17.066;2022-10-23T20:53:26;100040.38;;;11.81;74.44
63582;BME280;49727;51.078;17.066;2022-10-23T21:08:26;100052.44;;;11.77;74.13
63582;BME280;49727;51.078;17.066;2022-10-23T21:23:27;100030.50;;;11.67;74.92
63582;BME280;49727;51.078;17.066;2022-10-23T21:38:28;100008.56;;;11.42;74.88
63582;BME280;49727;51.078;17.066;2022-10-23T21:53:29;100000.03;;;11.23;75.30
63582;BME280;49727;51.078;17.066;2022-10-23T22:08:29;99963.03;;;11.05;75.68
63582;BME280;49727;51.078;17.066;2022-10-23T22:23:31;99962.47;;;10.95;76.97
63582;BME280;49727;51.078;17.066;2022-10-23T22:38:31;99950.59;;;10.97;77.24
63582;BME280;49727;51.078;17.066;2022-10-23T22:53:32;99946.81;;;10.92;76.70
63582;BME280;49727;51.078;17.066;2022-10-23T23:08:34;99952.50;;;10.89;77.38
63582;BME280;49727;51.078;17.066;2022-10-23T23:23:35;99960.81;;;10.94;77.96
63582;BME280;49727;51.078;17.066;2022-10-23T23:38:36;99959.44;;;10.98;77.91
63582;BME280;49727;51.078;17.066;2022-10-23T23:53:37;99959.44;;;10.98;78.16
